createdAt,value
2023-04-01T00:02:05.527Z,100.00
2023-04-01T00:04:33.254Z,100.00
2023-04-01T00:07:01.219Z,100.00
2023-04-01T00:09:29.998Z,100.00
2023-04-01T00:11:58.982Z,100.00
2023-04-01T00:14:26.465Z,100.00
2023-04-01T00:16:54.173Z,100.00
2023-04-01T00:19:21.675Z,100.00
2023-04-01T00:21:49.329Z,100.00
2023-04-01T00:24:16.831Z,100.00
2023-04-01T00:26:45.465Z,100.00
2023-04-01T00:29:14.307Z,100.00
2023-04-01T00:31:41.830Z,100.00
2023-04-01T00:34:09.363Z,100.00
2023-04-01T00:36:36.850Z,100.00
2023-04-01T00:39:04.556Z,100.00
2023-04-01T00:41:32.019Z,100.00
2023-04-01T00:46:54.381Z,100.00
2023-04-01T00:49:26.046Z,100.00
2023-04-01T00:51:56.734Z,100.00
2023-04-01T00:54:26.528Z,100.00
2023-04-01T00:56:58.861Z,100.00
2023-04-01T00:59:28.514Z,100.00
2023-04-01T01:01:57.477Z,100.00
2023-04-01T01:04:26.915Z,100.00
2023-04-01T01:07:04.141Z,100.00
2023-04-01T01:09:41.557Z,100.00
2023-04-01T01:12:15.009Z,100.00
2023-04-01T01:14:54.378Z,100.00
2023-04-01T01:17:31.590Z,100.00
2023-04-01T01:20:25.919Z,100.00
2023-04-01T01:23:18.771Z,100.00
2023-04-01T01:25:51.460Z,100.00
2023-04-01T01:28:35.405Z,100.00
2023-04-01T01:31:14.587Z,100.00
2023-04-01T01:33:55.330Z,100.00
2023-04-01T01:36:27.149Z,100.00
2023-04-01T01:38:55.325Z,100.00
2023-04-01T01:41:24.456Z,100.00
2023-04-01T01:43:54.769Z,100.00
2023-04-01T01:46:25.880Z,100.00
2023-04-01T01:48:54.224Z,100.00
2023-04-01T01:51:24.683Z,100.00
2023-04-01T01:53:52.174Z,100.00
2023-04-01T01:56:23.582Z,100.00
2023-04-01T01:58:54.668Z,100.00
2023-04-01T02:01:26.561Z,100.00
2023-04-01T02:03:55.407Z,100.00
2023-04-01T02:06:27.931Z,100.00
2023-04-01T02:08:58.097Z,100.00
2023-04-01T02:11:30.455Z,100.00
2023-04-01T02:14:04.701Z,100.00
2023-04-01T02:16:37.023Z,100.00
2023-04-01T02:19:08.278Z,100.00
2023-04-01T02:21:38.867Z,100.00
2023-04-01T02:24:09.817Z,100.00
2023-04-01T02:26:37.339Z,100.00
2023-04-01T02:29:07.419Z,100.00
2023-04-01T02:31:36.183Z,100.00
2023-04-01T02:34:05.355Z,100.00
2023-04-01T02:36:33.816Z,100.00
2023-04-01T02:39:05.231Z,100.00
2023-04-01T02:41:32.758Z,100.00
2023-04-01T02:44:00.323Z,100.00
2023-04-01T02:46:27.869Z,100.00
2023-04-01T02:48:55.710Z,100.00
2023-04-01T02:51:23.177Z,100.00
2023-04-01T02:53:50.948Z,100.00
2023-04-01T02:56:20.528Z,100.00
2023-04-01T02:58:48.017Z,100.00
2023-04-01T03:01:15.595Z,100.00
2023-04-01T03:03:43.134Z,100.00
2023-04-01T03:06:12.973Z,100.00
2023-04-01T03:08:40.555Z,100.00
2023-04-01T03:11:08.321Z,100.00
2023-04-01T03:13:37.139Z,100.00
2023-04-01T03:16:05.082Z,100.00
2023-04-01T03:18:32.556Z,100.00
2023-04-01T03:21:14.338Z,100.00
2023-04-01T03:23:41.818Z,100.00
2023-04-01T03:26:09.671Z,100.00
2023-04-01T03:28:38.807Z,100.00
2023-04-01T03:31:07.083Z,100.00
2023-04-01T03:33:34.665Z,100.00
2023-04-01T03:36:02.206Z,100.00
2023-04-01T03:38:29.717Z,100.00
2023-04-01T03:40:57.187Z,100.00
2023-04-01T03:43:24.651Z,100.00
2023-04-01T03:45:55.425Z,100.00
2023-04-01T03:48:22.942Z,100.00
2023-04-01T03:50:50.712Z,100.00
2023-04-01T03:53:18.210Z,100.00
2023-04-01T03:55:45.952Z,100.00
2023-04-01T03:58:13.646Z,100.00
2023-04-01T04:00:41.628Z,100.00
2023-04-01T04:03:10.763Z,100.00
2023-04-01T04:05:38.287Z,100.00
2023-04-01T04:08:06.149Z,100.00
2023-04-01T04:10:33.647Z,100.00
2023-04-01T04:13:01.090Z,100.00
2023-04-01T04:15:28.550Z,100.00
2023-04-01T04:17:56.034Z,100.00
2023-04-01T04:20:24.861Z,100.00
2023-04-01T04:22:52.339Z,100.00
2023-04-01T04:25:19.819Z,100.00
2023-04-01T04:27:47.450Z,100.00
2023-04-01T04:30:15.591Z,100.00
2023-04-01T04:32:43.175Z,100.00
2023-04-01T04:35:10.819Z,100.00
2023-04-01T04:37:39.618Z,100.00
2023-04-01T04:40:08.637Z,100.00
2023-04-01T04:42:36.135Z,100.00
2023-04-01T04:45:03.940Z,100.00
2023-04-01T04:47:31.445Z,100.00
2023-04-01T04:49:58.922Z,100.00
2023-04-01T04:52:26.374Z,100.00
2023-04-01T04:54:55.290Z,100.00
2023-04-01T04:57:22.883Z,100.00
2023-04-01T04:59:50.492Z,100.00
2023-04-01T05:02:18.525Z,100.00
2023-04-01T05:04:45.974Z,100.00
2023-04-01T05:07:13.603Z,100.00
2023-04-01T05:09:41.232Z,100.00
2023-04-01T05:12:10.071Z,100.00
2023-04-01T05:14:37.672Z,100.00
2023-04-01T05:17:05.324Z,100.00
2023-04-01T05:19:32.858Z,100.00
2023-04-01T05:22:00.334Z,100.00
2023-04-01T05:24:27.884Z,100.00
2023-04-01T05:26:56.866Z,100.00
2023-04-01T05:29:26.136Z,100.00
2023-04-01T05:31:53.783Z,100.00
2023-04-01T05:34:21.253Z,100.00
2023-04-01T05:36:48.720Z,100.00
2023-04-01T05:39:16.357Z,100.00
2023-04-01T05:41:44.047Z,100.00
2023-04-01T05:44:13.561Z,100.00
2023-04-01T05:46:42.584Z,100.00
2023-04-01T05:49:10.164Z,100.00
2023-04-01T05:51:37.638Z,100.00
2023-04-01T05:54:06.714Z,100.00
2023-04-01T05:56:34.198Z,100.00
2023-04-01T05:59:01.668Z,100.00
2023-04-01T06:01:29.137Z,100.00
2023-04-01T06:03:58.102Z,100.00
2023-04-01T06:06:28.077Z,100.00
2023-04-01T06:08:58.435Z,100.00
2023-04-01T06:11:34.630Z,100.00
2023-04-01T06:14:12.159Z,100.00
2023-04-01T06:16:51.646Z,100.00
2023-04-01T06:19:31.214Z,100.00
2023-04-01T06:22:30.044Z,100.00
2023-04-01T06:25:15.114Z,100.00
2023-04-01T06:28:02.918Z,100.00
2023-04-01T06:30:40.265Z,100.00
2023-04-01T06:33:29.807Z,100.00
2023-04-01T06:36:19.988Z,100.00
2023-04-01T06:39:00.571Z,100.00
2023-04-01T06:41:46.754Z,100.00
2023-04-01T06:44:22.256Z,100.00
2023-04-01T06:46:59.291Z,100.00
2023-04-01T06:49:46.463Z,100.00
2023-04-01T06:52:23.683Z,100.00
2023-04-01T06:54:55.298Z,100.00
2023-04-01T06:57:30.412Z,100.00
2023-04-01T07:00:01.747Z,100.00
2023-04-01T07:02:36.831Z,100.00
2023-04-01T07:05:06.259Z,100.00
2023-04-01T07:07:41.249Z,100.00
2023-04-01T07:10:14.836Z,100.00
2023-04-01T07:12:48.793Z,100.00
2023-04-01T07:15:21.213Z,100.00
2023-04-01T07:17:54.480Z,100.00
2023-04-01T07:20:28.176Z,100.00
2023-04-01T07:23:00.513Z,100.00
2023-04-01T07:25:31.264Z,100.00
2023-04-01T07:28:03.021Z,97.92
2023-04-01T07:30:37.851Z,97.89
2023-04-01T07:33:11.774Z,98.20
2023-04-01T07:35:45.402Z,100.00
2023-04-01T07:38:25.014Z,100.00
2023-04-01T07:41:05.135Z,100.00
2023-04-01T07:43:44.256Z,100.00
2023-04-01T07:46:23.456Z,100.00
2023-04-01T07:48:58.684Z,100.00
2023-04-01T07:51:31.225Z,100.00
2023-04-01T07:54:08.805Z,100.00
2023-04-01T07:56:44.720Z,100.00
2023-04-01T07:59:23.758Z,97.20
2023-04-01T08:02:00.297Z,98.73
2023-04-01T08:04:43.509Z,100.00
2023-04-01T08:07:15.371Z,97.66
2023-04-01T08:09:51.868Z,99.10
2023-04-01T08:12:29.665Z,96.52
2023-04-01T08:15:10.565Z,93.68
2023-04-01T08:17:46.767Z,89.74
2023-04-01T08:20:27.176Z,92.94
2023-04-01T08:23:01.831Z,88.13
2023-04-01T08:25:32.886Z,85.28
2023-04-01T08:28:06.414Z,76.97
2023-04-01T08:30:43.154Z,74.15
2023-04-01T08:33:16.644Z,72.46
2023-04-01T08:35:51.229Z,70.73
2023-04-01T08:38:23.664Z,70.03
2023-04-01T08:41:01.701Z,74.50
2023-04-01T08:43:45.841Z,74.48
2023-04-01T08:46:37.080Z,74.47
2023-04-01T08:49:24.707Z,77.57
2023-04-01T08:52:16.976Z,74.67
2023-04-01T08:55:11.731Z,72.74
2023-04-01T08:57:56.770Z,72.92
2023-04-01T09:00:32.487Z,73.13
2023-04-01T09:03:36.158Z,74.01
2023-04-01T09:06:26.024Z,74.63
2023-04-01T09:09:08.371Z,76.02
2023-04-01T09:11:51.585Z,77.19
2023-04-01T09:14:35.209Z,75.55
2023-04-01T09:17:37.574Z,74.02
2023-04-01T09:20:22.034Z,74.78
2023-04-01T09:23:09.886Z,75.32
2023-04-01T09:26:01.628Z,79.17
2023-04-01T09:28:35.796Z,78.29
2023-04-01T09:31:27.797Z,82.80
2023-04-01T09:34:23.428Z,85.12
2023-04-01T09:37:01.211Z,82.86
2023-04-01T09:39:38.225Z,80.03
2023-04-01T09:42:24.378Z,79.11
2023-04-01T09:44:59.436Z,78.86
2023-04-01T09:47:45.968Z,75.40
2023-04-01T09:50:31.630Z,78.95
2023-04-01T09:53:14.281Z,78.77
2023-04-01T09:56:04.394Z,78.27
2023-04-01T09:58:59.273Z,78.23
2023-04-01T10:01:45.984Z,81.19
2023-04-01T10:04:33.553Z,83.79
2023-04-01T10:07:28.347Z,85.41
2023-04-01T10:10:28.037Z,84.54
2023-04-01T10:13:16.669Z,88.01
2023-04-01T10:16:12.299Z,90.09
2023-04-01T10:18:58.540Z,87.13
2023-04-01T10:21:59.818Z,93.08
2023-04-01T10:25:05.728Z,89.32
2023-04-01T10:28:08.204Z,91.22
2023-04-01T10:31:26.192Z,83.76
2023-04-01T10:34:23.679Z,82.81
2023-04-01T10:36:56.960Z,83.82
2023-04-01T10:39:54.644Z,82.63
2023-04-01T10:42:53.307Z,84.10
2023-04-01T10:45:53.300Z,82.43
2023-04-01T10:48:46.681Z,85.37
2023-04-01T10:51:23.304Z,85.24
2023-04-01T10:54:21.140Z,82.17
2023-04-01T10:56:56.595Z,78.09
2023-04-01T10:59:57.713Z,75.42
2023-04-01T11:03:04.771Z,75.84
2023-04-01T11:06:01.211Z,83.97
2023-04-01T11:09:08.099Z,91.96
2023-04-01T11:12:20.519Z,100.00
2023-04-01T11:15:33.377Z,100.00
2023-04-01T11:18:45.432Z,100.00
2023-04-01T11:21:44.811Z,100.00
2023-04-01T11:24:23.563Z,100.00
2023-04-01T11:27:05.929Z,100.00
2023-04-01T11:29:58.720Z,100.00
2023-04-01T11:32:37.209Z,100.00
2023-04-01T11:35:35.070Z,100.00
2023-04-01T11:38:16.608Z,100.00
2023-04-01T11:40:49.542Z,100.00
2023-04-01T11:43:32.780Z,100.00
2023-04-01T11:46:09.829Z,100.00
2023-04-01T11:49:00.199Z,100.00
2023-04-01T11:51:52.933Z,100.00
2023-04-01T11:54:30.679Z,100.00
2023-04-01T11:57:12.546Z,100.00
2023-04-01T11:59:54.621Z,100.00
2023-04-01T12:02:30.531Z,100.00
2023-04-01T12:05:20.913Z,100.00
2023-04-01T12:08:02.092Z,100.00
2023-04-01T12:10:39.710Z,100.00
2023-04-01T12:13:16.905Z,100.00
2023-04-01T12:15:58.783Z,100.00
2023-04-01T12:18:33.941Z,100.00
2023-04-01T12:21:16.909Z,100.00
2023-04-01T12:24:03.441Z,100.00
2023-04-01T12:26:43.031Z,100.00
2023-04-01T12:29:39.551Z,100.00
2023-04-01T12:32:19.504Z,100.00
2023-04-01T12:35:17.047Z,100.00
2023-04-01T12:37:53.701Z,100.00
2023-04-01T12:40:32.734Z,100.00
2023-04-01T12:43:12.794Z,100.00
2023-04-01T12:45:45.506Z,100.00
2023-04-01T12:48:40.485Z,100.00
2023-04-01T12:51:47.172Z,100.00
2023-04-01T12:54:48.154Z,100.00
2023-04-01T12:57:44.197Z,100.00
2023-04-01T13:00:27.732Z,100.00
2023-04-01T13:03:12.960Z,100.00
2023-04-01T13:05:56.792Z,100.00
2023-04-01T13:08:42.330Z,100.00
2023-04-01T13:11:22.410Z,100.00
2023-04-01T13:14:31.913Z,100.00
2023-04-01T13:17:09.756Z,100.00
2023-04-01T13:19:48.591Z,100.00
2023-04-01T13:22:32.282Z,100.00
2023-04-01T13:25:08.149Z,100.00
2023-04-01T13:27:42.549Z,100.00
2023-04-01T13:30:26.541Z,100.00
2023-04-01T13:33:03.804Z,100.00
2023-04-01T13:35:40.924Z,100.00
2023-04-01T13:38:30.488Z,100.00
2023-04-01T13:41:07.885Z,100.00
2023-04-01T13:43:41.485Z,100.00
2023-04-01T13:46:24.690Z,100.00
2023-04-01T13:49:07.161Z,100.00
2023-04-01T13:51:59.000Z,100.00
2023-04-01T13:54:53.624Z,100.00
2023-04-01T13:57:40.389Z,100.00
2023-04-01T14:00:41.025Z,100.00
2023-04-01T14:03:34.065Z,100.00
2023-04-01T14:06:12.107Z,100.00
2023-04-01T14:08:57.982Z,100.00
2023-04-01T14:11:35.852Z,100.00
2023-04-01T14:14:15.619Z,100.00
2023-04-01T14:17:29.622Z,100.00
2023-04-01T14:20:27.537Z,100.00
2023-04-01T14:23:15.678Z,100.00
2023-04-01T14:26:00.354Z,100.00
2023-04-01T14:28:34.515Z,100.00
2023-04-01T14:31:30.659Z,100.00
2023-04-01T14:34:13.313Z,100.00
2023-04-01T14:36:51.303Z,100.00
2023-04-01T14:39:41.231Z,100.00
2023-04-01T14:42:24.517Z,100.00
2023-04-01T14:45:09.927Z,100.00
2023-04-01T14:47:48.348Z,100.00
2023-04-01T14:50:19.969Z,100.00
2023-04-01T14:52:58.684Z,100.00
2023-04-01T14:55:33.585Z,100.00
2023-04-01T14:58:09.675Z,100.00
2023-04-01T15:00:56.441Z,100.00
2023-04-01T15:03:30.838Z,100.00
2023-04-01T15:06:20.664Z,100.00
2023-04-01T15:08:59.166Z,100.00
2023-04-01T15:11:42.095Z,100.00
2023-04-01T15:14:26.342Z,100.00
2023-04-01T15:17:03.159Z,100.00
2023-04-01T15:19:43.909Z,100.00
2023-04-01T15:22:39.438Z,100.00
2023-04-01T15:25:22.085Z,100.00
2023-04-01T15:27:57.528Z,100.00
2023-04-01T15:30:38.355Z,100.00
2023-04-01T15:33:34.167Z,100.00
2023-04-01T15:36:14.796Z,100.00
2023-04-01T15:38:52.885Z,100.00
2023-04-01T15:41:28.293Z,100.00
2023-04-01T15:43:55.801Z,100.00
2023-04-01T15:46:44.907Z,100.00
2023-04-01T15:49:24.015Z,100.00
2023-04-01T15:52:05.003Z,100.00
2023-04-01T15:55:02.942Z,100.00
2023-04-01T15:57:38.179Z,100.00
2023-04-01T16:00:18.751Z,100.00
2023-04-01T16:02:52.007Z,100.00
2023-04-01T16:05:36.419Z,100.00
2023-04-01T16:08:21.960Z,100.00
2023-04-01T16:11:01.141Z,100.00
2023-04-01T16:13:46.971Z,100.00
2023-04-01T16:16:25.631Z,100.00
2023-04-01T16:19:09.829Z,100.00
2023-04-01T16:21:45.207Z,100.00
2023-04-01T16:24:19.725Z,100.00
2023-04-01T16:26:55.679Z,100.00
2023-04-01T16:29:30.883Z,100.00
2023-04-01T16:32:12.364Z,100.00
2023-04-01T16:34:46.060Z,100.00
2023-04-01T16:37:18.041Z,100.00
2023-04-01T16:39:51.389Z,100.00
2023-04-01T16:42:28.085Z,100.00
2023-04-01T16:45:01.513Z,100.00
2023-04-01T16:47:33.332Z,100.00
2023-04-01T16:50:07.682Z,100.00
2023-04-01T16:52:50.520Z,100.00
2023-04-01T16:55:19.997Z,100.00
2023-04-01T16:57:53.630Z,100.00
2023-04-01T17:00:28.160Z,100.00
2023-04-01T17:03:06.372Z,100.00
2023-04-01T17:05:47.434Z,100.00
2023-04-01T17:08:26.355Z,100.00
2023-04-01T17:10:59.049Z,100.00
2023-04-01T17:13:37.412Z,100.00
2023-04-01T17:16:31.069Z,100.00
2023-04-01T17:19:07.301Z,100.00
2023-04-01T17:21:49.086Z,100.00
2023-04-01T17:24:32.469Z,100.00
2023-04-01T17:27:11.681Z,100.00
2023-04-01T17:30:03.288Z,100.00
2023-04-01T17:32:43.809Z,100.00
2023-04-01T17:35:16.588Z,100.00
2023-04-01T17:37:55.231Z,100.00
2023-04-01T17:40:35.869Z,100.00
2023-04-01T17:43:14.293Z,100.00
2023-04-01T17:45:49.155Z,100.00
2023-04-01T17:48:26.196Z,100.00
2023-04-01T17:51:04.469Z,100.00
2023-04-01T17:53:39.453Z,100.00
2023-04-01T17:56:13.821Z,100.00
2023-04-01T17:58:47.535Z,100.00
2023-04-01T18:01:28.505Z,100.00
2023-04-01T18:04:12.984Z,100.00
2023-04-01T18:06:56.291Z,100.00
2023-04-01T18:09:35.965Z,100.00
2023-04-01T18:12:14.902Z,100.00
2023-04-01T18:15:01.842Z,100.00
2023-04-01T18:17:43.910Z,100.00
2023-04-01T18:20:27.728Z,100.00
2023-04-01T18:22:59.056Z,100.00
2023-04-01T18:25:34.546Z,100.00
2023-04-01T18:28:20.119Z,100.00
2023-04-01T18:30:55.753Z,100.00
2023-04-01T18:33:30.365Z,100.00
2023-04-01T18:36:10.356Z,100.00
2023-04-01T18:38:41.317Z,100.00
2023-04-01T18:41:15.736Z,100.00
2023-04-01T18:43:57.165Z,100.00
2023-04-01T18:46:33.062Z,100.00
2023-04-01T18:49:10.019Z,100.00
2023-04-01T18:51:46.851Z,100.00
2023-04-01T18:54:17.503Z,100.00
2023-04-01T18:56:46.737Z,100.00
2023-04-01T18:59:22.097Z,100.00
2023-04-01T19:01:59.206Z,100.00
2023-04-01T19:04:37.743Z,100.00
2023-04-01T19:07:50.612Z,100.00
2023-04-01T19:10:26.631Z,100.00
2023-04-01T19:13:12.864Z,100.00
2023-04-01T19:15:46.449Z,100.00
2023-04-01T19:18:30.426Z,100.00
2023-04-01T19:21:03.660Z,100.00
2023-04-01T19:24:12.381Z,100.00
2023-04-01T19:26:46.143Z,100.00
2023-04-01T19:29:25.997Z,100.00
2023-04-01T19:32:05.100Z,100.00
2023-04-01T19:34:45.984Z,100.00
2023-04-01T19:37:27.216Z,100.00
2023-04-01T19:40:01.834Z,100.00
2023-04-01T19:42:40.405Z,100.00
2023-04-01T19:45:27.145Z,100.00
2023-04-01T19:48:04.101Z,100.00
2023-04-01T19:50:36.645Z,100.00
2023-04-01T19:53:15.828Z,100.00
2023-04-01T19:55:48.621Z,100.00
2023-04-01T19:58:22.735Z,100.00
2023-04-01T20:00:53.418Z,100.00
2023-04-01T20:03:36.474Z,100.00
2023-04-01T20:06:15.347Z,100.00
2023-04-01T20:08:52.751Z,100.00
2023-04-01T20:11:32.777Z,100.00
2023-04-01T20:14:10.102Z,100.00
2023-04-01T20:16:55.049Z,100.00
2023-04-01T20:19:30.630Z,100.00
2023-04-01T20:22:01.263Z,100.00
2023-04-01T20:24:36.284Z,100.00
2023-04-01T20:27:10.330Z,100.00
2023-04-01T20:29:44.244Z,100.00
2023-04-01T20:32:27.210Z,100.00
2023-04-01T20:35:19.803Z,100.00
2023-04-01T20:37:55.630Z,100.00
2023-04-01T20:40:34.007Z,100.00
2023-04-01T20:43:44.536Z,100.00
2023-04-01T20:46:20.942Z,100.00
2023-04-01T20:49:24.855Z,100.00
2023-04-01T20:51:56.792Z,100.00
2023-04-01T20:54:38.961Z,100.00
2023-04-01T20:57:13.258Z,100.00
2023-04-01T20:59:56.160Z,100.00
2023-04-01T21:02:49.222Z,100.00
2023-04-01T21:06:09.740Z,100.00
2023-04-01T21:08:48.895Z,100.00
2023-04-01T21:11:23.170Z,100.00
2023-04-01T21:14:09.153Z,100.00
2023-04-01T21:16:46.145Z,100.00
2023-04-01T21:19:37.300Z,100.00
2023-04-01T21:22:22.153Z,100.00
2023-04-01T21:25:23.599Z,100.00
2023-04-01T21:28:07.374Z,100.00
2023-04-01T21:30:49.214Z,100.00
2023-04-01T21:33:34.709Z,100.00
2023-04-01T21:36:12.347Z,100.00
2023-04-01T21:38:56.497Z,100.00
2023-04-01T21:41:46.561Z,100.00
2023-04-01T21:44:38.096Z,100.00
2023-04-01T21:47:40.418Z,100.00
2023-04-01T21:50:44.241Z,100.00
2023-04-01T21:54:08.670Z,100.00
2023-04-01T21:57:05.399Z,100.00
2023-04-01T22:00:23.232Z,100.00
2023-04-01T22:03:30.774Z,100.00
2023-04-01T22:06:15.325Z,100.00
2023-04-01T22:08:56.707Z,100.00
2023-04-01T22:11:34.281Z,100.00
2023-04-01T22:14:08.390Z,100.00
2023-04-01T22:16:42.994Z,100.00
2023-04-01T22:19:20.801Z,100.00
2023-04-01T22:22:02.445Z,100.00
2023-04-01T22:24:45.934Z,100.00
2023-04-01T22:27:23.227Z,100.00
2023-04-01T22:30:01.376Z,100.00
2023-04-01T22:32:33.949Z,100.00
2023-04-01T22:35:10.332Z,100.00
2023-04-01T22:37:52.839Z,100.00
2023-04-01T22:40:27.219Z,100.00
2023-04-01T22:43:00.036Z,100.00
2023-04-01T22:45:49.210Z,100.00
2023-04-01T22:48:22.726Z,100.00
2023-04-01T22:50:57.572Z,100.00
2023-04-01T22:53:43.016Z,100.00
2023-04-01T22:56:16.939Z,100.00
2023-04-01T22:58:49.529Z,100.00
2023-04-01T23:01:21.892Z,100.00
2023-04-01T23:03:51.856Z,100.00
2023-04-01T23:06:22.677Z,100.00
2023-04-01T23:09:07.085Z,100.00
2023-04-01T23:11:39.248Z,100.00
2023-04-01T23:14:29.811Z,100.00
2023-04-01T23:17:06.808Z,100.00
2023-04-01T23:19:39.743Z,100.00
2023-04-01T23:22:18.903Z,100.00
2023-04-01T23:24:55.009Z,100.00
2023-04-01T23:27:29.101Z,100.00
2023-04-01T23:29:56.554Z,100.00
2023-04-01T23:32:27.490Z,100.00
2023-04-01T23:34:58.024Z,100.00
2023-04-01T23:37:26.309Z,100.00
2023-04-01T23:39:57.763Z,100.00
2023-04-01T23:42:27.746Z,100.00
2023-04-01T23:44:58.110Z,100.00
2023-04-01T23:47:29.840Z,100.00
2023-04-01T23:49:59.259Z,100.00
2023-04-01T23:52:29.285Z,100.00
2023-04-01T23:55:01.264Z,100.00
2023-04-01T23:57:31.689Z,100.00
